createdAt,value
2023-01-23T00:01:30.605Z,102107.55
2023-01-23T00:03:59.997Z,102109.11
2023-01-23T00:06:28.295Z,102107.13
2023-01-23T00:08:57.201Z,102108.70
2023-01-23T00:11:27.773Z,102112.65
2023-01-23T00:13:57.288Z,102112.34
2023-01-23T00:16:27.735Z,102110.79
2023-01-23T00:18:55.975Z,102112.65
2023-01-23T00:21:27.097Z,102112.50
2023-01-23T00:23:57.641Z,102114.81
2023-01-23T00:26:28.265Z,102123.27
2023-01-23T00:28:56.945Z,102125.02
2023-01-23T00:31:26.924Z,102132.61
2023-01-23T00:33:56.967Z,102133.41
2023-01-23T00:36:28.120Z,102133.11
2023-01-23T00:38:56.963Z,102129.86
2023-01-23T00:41:25.461Z,102128.13
2023-01-23T00:43:54.669Z,102126.17
2023-01-23T00:46:23.126Z,102123.96
2023-01-23T00:48:51.683Z,102117.92
2023-01-23T00:51:19.857Z,102118.95
2023-01-23T00:53:47.967Z,102119.27
2023-01-23T00:56:16.029Z,102121.77
2023-01-23T00:58:45.333Z,102128.77
2023-01-23T01:01:14.360Z,102124.92
2023-01-23T01:03:42.579Z,102127.79
2023-01-23T01:06:11.148Z,102135.08
2023-01-23T01:08:39.299Z,102133.14
2023-01-23T01:11:08.002Z,102135.88
2023-01-23T01:13:36.295Z,102137.16
2023-01-23T01:16:06.178Z,102139.05
2023-01-23T01:18:34.166Z,102135.39
2023-01-23T01:21:05.497Z,102139.84
2023-01-23T01:23:33.529Z,102139.77
2023-01-23T01:26:01.889Z,102142.33
2023-01-23T01:28:32.497Z,102146.39
2023-01-23T01:31:06.132Z,102149.48
2023-01-23T01:33:34.206Z,102149.84
2023-01-23T01:36:02.207Z,102152.83
2023-01-23T01:38:30.184Z,102152.23
2023-01-23T01:40:59.235Z,102157.92
2023-01-23T01:43:28.377Z,102161.23
2023-01-23T01:46:21.030Z,102162.55
2023-01-23T01:48:56.092Z,102163.73
2023-01-23T01:51:28.919Z,102161.73
2023-01-23T01:54:04.778Z,102161.79
2023-01-23T01:56:39.514Z,102164.99
2023-01-23T01:59:08.316Z,102165.73
2023-01-23T02:01:37.385Z,102171.85
2023-01-23T02:04:05.947Z,102174.90
2023-01-23T02:06:34.001Z,102179.00
2023-01-23T02:09:05.490Z,102182.27
2023-01-23T02:11:33.758Z,102184.02
2023-01-23T02:14:01.780Z,102181.89
2023-01-23T02:16:33.394Z,102182.28
2023-01-23T02:19:07.244Z,102182.14
2023-01-23T02:21:38.805Z,102190.82
2023-01-23T02:24:23.525Z,102200.78
2023-01-23T02:26:52.722Z,102198.70
2023-01-23T02:29:20.927Z,102197.88
2023-01-23T02:31:55.599Z,102195.12
2023-01-23T02:34:25.356Z,102191.30
2023-01-23T02:36:55.295Z,102183.92
2023-01-23T02:39:23.352Z,102183.77
2023-01-23T02:41:55.539Z,102182.55
2023-01-23T02:44:28.352Z,102187.14
2023-01-23T02:47:04.347Z,102188.71
2023-01-23T02:49:32.643Z,102189.95
2023-01-23T02:52:00.710Z,102187.11
2023-01-23T02:54:29.022Z,102188.35
2023-01-23T02:56:57.368Z,102196.02
2023-01-23T02:59:44.451Z,102196.02
2023-01-23T03:02:15.193Z,102196.09
2023-01-23T03:04:43.283Z,102193.82
2023-01-23T03:07:11.346Z,102192.98
2023-01-23T03:09:39.559Z,102192.88
2023-01-23T03:12:08.661Z,102197.06
2023-01-23T03:14:37.181Z,102197.20
2023-01-23T03:17:06.760Z,102196.03
2023-01-23T03:19:36.378Z,102198.86
2023-01-23T03:22:07.264Z,102202.97
2023-01-23T03:24:35.558Z,102207.90
2023-01-23T03:27:04.915Z,102210.01
2023-01-23T03:29:56.728Z,102206.73
2023-01-23T03:32:25.558Z,102205.88
2023-01-23T03:34:53.935Z,102205.52
2023-01-23T03:37:23.493Z,102201.39
2023-01-23T03:40:10.495Z,102203.13
2023-01-23T03:42:38.574Z,102203.38
2023-01-23T03:45:09.247Z,102207.44
2023-01-23T03:47:37.408Z,102211.70
2023-01-23T03:50:10.002Z,102214.67
2023-01-23T03:52:38.621Z,102219.06
2023-01-23T03:55:08.145Z,102222.83
2023-01-23T03:57:37.025Z,102228.62
2023-01-23T04:00:16.208Z,102229.30
2023-01-23T04:03:04.767Z,102234.52
2023-01-23T04:05:32.804Z,102234.83
2023-01-23T04:08:01.483Z,102233.05
2023-01-23T04:10:29.665Z,102234.59
2023-01-23T04:13:02.914Z,102232.95
2023-01-23T04:15:33.464Z,102231.16
2023-01-23T04:18:02.001Z,102236.21
2023-01-23T04:20:30.251Z,102240.07
2023-01-23T04:22:58.754Z,102234.91
2023-01-23T04:25:28.648Z,102231.11
2023-01-23T04:27:56.670Z,102234.57
2023-01-23T04:30:24.719Z,102237.09
2023-01-23T04:32:52.808Z,102239.77
2023-01-23T04:35:21.004Z,102242.70
2023-01-23T04:37:49.074Z,102248.62
2023-01-23T04:40:18.081Z,102251.52
2023-01-23T04:42:53.717Z,102250.84
2023-01-23T04:45:37.118Z,102253.50
2023-01-23T04:48:24.921Z,102250.16
2023-01-23T04:50:54.075Z,102250.08
2023-01-23T04:53:22.089Z,102249.58
2023-01-23T04:55:55.995Z,102253.33
2023-01-23T04:58:24.086Z,102254.54
2023-01-23T05:00:53.221Z,102256.29
2023-01-23T05:03:25.040Z,102258.67
2023-01-23T05:05:53.532Z,102257.77
2023-01-23T05:08:22.444Z,102255.11
2023-01-23T05:10:57.659Z,102260.79
2023-01-23T05:13:26.075Z,102265.73
2023-01-23T05:15:54.190Z,102264.54
2023-01-23T05:18:22.551Z,102267.73
2023-01-23T05:20:51.479Z,102266.03
2023-01-23T05:23:19.653Z,102261.29
2023-01-23T05:25:50.810Z,102263.30
2023-01-23T05:28:18.905Z,102263.59
2023-01-23T05:30:49.999Z,102269.06
2023-01-23T05:33:25.995Z,102267.91
2023-01-23T05:35:58.149Z,102269.45
2023-01-23T05:38:26.309Z,102269.28
2023-01-23T05:40:54.815Z,102276.53
2023-01-23T05:43:43.023Z,102281.86
2023-01-23T05:46:26.481Z,102286.59
2023-01-23T05:48:54.722Z,102286.88
2023-01-23T05:51:23.395Z,102290.08
2023-01-23T05:53:51.833Z,102293.98
2023-01-23T05:56:19.871Z,102298.90
2023-01-23T05:59:16.931Z,102306.16
2023-01-23T06:01:56.370Z,102308.20
2023-01-23T06:05:00.728Z,102311.82
2023-01-23T06:07:37.263Z,102312.69
2023-01-23T06:10:10.183Z,102312.61
2023-01-23T06:12:38.357Z,102315.73
2023-01-23T06:15:08.239Z,102317.17
2023-01-23T06:17:36.709Z,102320.93
2023-01-23T06:20:07.405Z,102329.86
2023-01-23T06:22:35.484Z,102330.35
2023-01-23T06:25:08.996Z,102334.00
2023-01-23T06:27:37.159Z,102336.55
2023-01-23T06:30:10.755Z,102338.86
2023-01-23T06:32:42.960Z,102343.69
2023-01-23T06:35:11.420Z,102354.33
2023-01-23T06:37:41.602Z,102358.10
2023-01-23T06:40:13.392Z,102364.04
2023-01-23T06:42:43.756Z,102371.56
2023-01-23T06:45:12.272Z,102378.20
2023-01-23T06:47:40.246Z,102387.03
2023-01-23T06:50:10.708Z,102388.35
2023-01-23T06:52:39.179Z,102390.76
2023-01-23T06:55:09.236Z,102385.73
2023-01-23T06:57:37.294Z,102390.55
2023-01-23T07:00:09.531Z,102388.11
2023-01-23T07:02:39.406Z,102389.92
2023-01-23T07:05:08.629Z,102391.23
2023-01-23T07:07:37.506Z,102391.69
2023-01-23T07:10:08.037Z,102392.48
2023-01-23T07:12:36.028Z,102392.73
2023-01-23T07:15:04.793Z,102391.59
2023-01-23T07:17:38.387Z,102399.05
2023-01-23T07:20:09.314Z,102401.64
2023-01-23T07:22:41.913Z,102406.02
2023-01-23T07:25:10.412Z,102406.23
2023-01-23T07:27:38.362Z,102403.39
2023-01-23T07:30:08.947Z,102409.06
2023-01-23T07:32:36.908Z,102409.15
2023-01-23T07:35:07.197Z,102407.96
2023-01-23T07:37:35.143Z,102406.55
2023-01-23T07:40:03.433Z,102405.90
2023-01-23T07:42:31.436Z,102410.84
2023-01-23T07:44:59.432Z,102406.19
2023-01-23T07:47:27.375Z,102408.07
2023-01-23T07:49:55.410Z,102407.81
2023-01-23T07:52:23.392Z,102404.67
2023-01-23T07:54:51.409Z,102403.29
2023-01-23T07:57:19.563Z,102409.92
2023-01-23T07:59:48.539Z,102414.89
2023-01-23T08:02:16.695Z,102414.23
2023-01-23T08:04:45.469Z,102418.76
2023-01-23T08:07:13.676Z,102424.96
2023-01-23T08:09:41.579Z,102427.55
2023-01-23T08:12:09.481Z,102427.44
2023-01-23T08:14:37.436Z,102425.51
2023-01-23T08:17:05.752Z,102431.11
2023-01-23T08:19:33.737Z,102428.48
2023-01-23T08:22:01.722Z,102429.74
2023-01-23T08:24:29.806Z,102430.57
2023-01-23T08:26:58.183Z,102431.29
2023-01-23T08:29:26.248Z,102431.45
2023-01-23T08:31:54.516Z,102435.42
2023-01-23T08:34:23.575Z,102441.34
2023-01-23T08:36:51.879Z,102449.40
2023-01-23T08:39:20.137Z,102450.45
2023-01-23T08:41:48.119Z,102451.08
2023-01-23T08:44:16.052Z,102456.02
2023-01-23T08:46:44.880Z,102455.56
2023-01-23T08:49:12.918Z,102463.04
2023-01-23T08:51:40.858Z,102472.09
2023-01-23T08:54:08.793Z,102474.20
2023-01-23T08:56:36.747Z,102474.23
2023-01-23T08:59:04.726Z,102478.36
2023-01-23T09:01:32.729Z,102477.27
2023-01-23T09:04:00.666Z,102474.19
2023-01-23T09:06:28.678Z,102475.66
2023-01-23T09:08:56.651Z,102471.42
2023-01-23T09:11:24.691Z,102469.66
2023-01-23T09:13:54.047Z,102468.73
2023-01-23T09:16:22.370Z,102466.73
2023-01-23T09:18:50.586Z,102463.73
2023-01-23T09:21:18.657Z,102463.25
2023-01-23T09:23:46.578Z,102466.61
2023-01-23T09:26:15.551Z,102469.95
2023-01-23T09:28:43.657Z,102464.14
2023-01-23T09:31:13.412Z,102455.70
2023-01-23T09:33:41.883Z,102454.80
2023-01-23T09:36:11.307Z,102453.24
2023-01-23T09:38:39.450Z,102455.63
2023-01-23T09:41:16.049Z,102449.89
2023-01-23T09:43:51.701Z,102451.91
2023-01-23T09:46:24.656Z,102450.08
2023-01-23T09:48:57.571Z,102453.27
2023-01-23T09:51:30.579Z,102444.15
2023-01-23T09:54:04.981Z,102448.11
2023-01-23T09:56:41.437Z,102446.14
2023-01-23T09:59:14.985Z,102445.16
2023-01-23T10:01:43.010Z,102446.02
2023-01-23T10:04:15.338Z,102447.35
2023-01-23T10:07:02.690Z,102451.55
2023-01-23T10:09:54.955Z,102452.83
2023-01-23T10:12:35.613Z,102450.67
2023-01-23T10:15:23.897Z,102450.48
2023-01-23T10:18:04.716Z,102453.33
2023-01-23T10:20:50.427Z,102453.95
2023-01-23T10:23:41.333Z,102452.92
2023-01-23T10:26:15.159Z,102454.69
2023-01-23T10:28:46.172Z,102450.28
2023-01-23T10:31:28.603Z,102448.11
2023-01-23T10:34:06.705Z,102447.80
2023-01-23T10:36:53.456Z,102450.20
2023-01-23T10:39:29.245Z,102450.91
2023-01-23T10:42:02.369Z,102454.99
2023-01-23T10:44:30.958Z,102455.39
2023-01-23T10:47:04.633Z,102453.61
2023-01-23T10:49:34.831Z,102451.19
2023-01-23T10:52:02.809Z,102451.78
2023-01-23T10:54:32.888Z,102448.09
2023-01-23T10:57:04.185Z,102443.20
2023-01-23T10:59:36.042Z,102443.94
2023-01-23T11:02:20.384Z,102444.20
2023-01-23T11:04:51.095Z,102445.96
2023-01-23T11:07:21.671Z,102444.88
2023-01-23T11:09:53.293Z,102446.12
2023-01-23T11:12:23.473Z,102444.05
2023-01-23T11:15:19.719Z,102445.81
2023-01-23T11:18:01.470Z,102445.52
2023-01-23T11:20:32.668Z,102447.75
2023-01-23T11:23:12.806Z,102449.88
2023-01-23T11:25:45.542Z,102445.70
2023-01-23T11:28:24.347Z,102441.88
2023-01-23T11:31:12.344Z,102443.56
2023-01-23T11:33:47.161Z,102439.60
2023-01-23T11:36:31.617Z,102440.10
2023-01-23T11:39:07.057Z,102437.53
2023-01-23T11:41:36.529Z,102433.77
2023-01-23T11:44:11.277Z,102427.45
2023-01-23T11:46:59.555Z,102418.83
2023-01-23T11:49:51.367Z,102413.30
2023-01-23T11:52:36.152Z,102412.78
2023-01-23T11:55:26.382Z,102414.19
2023-01-23T11:58:06.143Z,102413.22
2023-01-23T12:00:42.359Z,102414.22
2023-01-23T12:03:28.463Z,102411.40
2023-01-23T12:06:20.051Z,102412.83
2023-01-23T12:08:54.376Z,102411.97
2023-01-23T12:11:24.888Z,102414.38
2023-01-23T12:14:15.853Z,102418.69
2023-01-23T12:16:56.800Z,102421.77
2023-01-23T12:19:38.123Z,102428.34
2023-01-23T12:22:14.589Z,102431.71
2023-01-23T12:24:58.456Z,102435.18
2023-01-23T12:27:39.203Z,102436.85
2023-01-23T12:30:46.365Z,102436.32
2023-01-23T12:33:35.665Z,102437.88
2023-01-23T12:36:19.983Z,102436.83
2023-01-23T12:38:59.299Z,102434.95
2023-01-23T12:41:37.473Z,102436.02
2023-01-23T12:44:14.406Z,102436.65
2023-01-23T12:46:46.341Z,102431.39
2023-01-23T12:49:26.969Z,102431.93
2023-01-23T12:52:00.695Z,102427.67
2023-01-23T12:54:36.537Z,102429.35
2023-01-23T12:57:05.700Z,102433.13
2023-01-23T12:59:47.693Z,102437.02
2023-01-23T13:02:24.155Z,102438.13
2023-01-23T13:05:06.499Z,102445.58
2023-01-23T13:07:46.232Z,102452.38
2023-01-23T13:10:46.087Z,102459.35
2023-01-23T13:13:15.687Z,102456.67
2023-01-23T13:15:44.349Z,102455.73
2023-01-23T13:18:27.217Z,102457.55
2023-01-23T13:21:17.038Z,102461.67
2023-01-23T13:23:45.414Z,102461.61
2023-01-23T13:26:28.578Z,102461.73
2023-01-23T13:29:00.847Z,102462.77
2023-01-23T13:31:39.855Z,102461.32
2023-01-23T13:34:37.704Z,102466.90
2023-01-23T13:37:52.923Z,102467.64
2023-01-23T13:40:23.544Z,102466.22
2023-01-23T13:42:52.127Z,102465.08
2023-01-23T13:45:35.154Z,102466.98
2023-01-23T14:20:39.380Z,102484.65
2023-01-23T14:25:56.336Z,102486.84
2023-01-23T14:28:29.622Z,102488.23
2023-01-23T14:31:02.970Z,102489.90
2023-01-23T14:33:42.908Z,102490.30
2023-01-23T14:36:19.164Z,102491.23
2023-01-23T14:38:51.487Z,102488.93
2023-01-23T14:41:31.158Z,102489.82
2023-01-23T14:44:04.139Z,102489.13
2023-01-23T14:46:40.465Z,102486.73
2023-01-23T14:49:12.226Z,102487.45
2023-01-23T14:51:55.056Z,102488.18
2023-01-23T14:54:29.643Z,102491.82
2023-01-23T14:57:05.684Z,102493.61
2023-01-23T14:59:38.748Z,102491.98
2023-01-23T15:05:20.157Z,102494.64
2023-01-23T15:07:54.982Z,102501.13
2023-01-23T15:10:28.734Z,102500.52
2023-01-23T15:13:03.396Z,102497.16
2023-01-23T15:15:35.767Z,102497.24
2023-01-23T15:18:19.955Z,102494.42
2023-01-23T15:20:58.218Z,102499.92
2023-01-23T15:23:33.365Z,102504.40
2023-01-23T15:26:27.304Z,102500.63
2023-01-23T15:29:01.930Z,102505.34
2023-01-23T15:31:35.469Z,102506.54
2023-01-23T15:34:25.825Z,102506.09
2023-01-23T15:37:05.376Z,102503.60
2023-01-23T15:39:40.484Z,102503.13
2023-01-23T15:45:15.219Z,102498.90
2023-01-23T15:47:45.986Z,102502.85
2023-01-23T15:50:17.286Z,102501.09
2023-01-23T15:52:53.301Z,102511.23
2023-01-23T15:55:26.699Z,102510.01
2023-01-23T15:57:58.060Z,102508.95
2023-01-23T16:00:31.185Z,102510.97
2023-01-23T16:03:04.083Z,102510.13
2023-01-23T16:05:37.750Z,102515.86
2023-01-23T16:08:17.059Z,102516.86
2023-01-23T16:10:48.619Z,102516.54
2023-01-23T16:13:26.651Z,102516.54
2023-01-23T16:15:57.470Z,102512.02
2023-01-23T16:18:32.067Z,102511.38
2023-01-23T16:21:08.024Z,102513.91
2023-01-23T16:23:47.181Z,102514.70
2023-01-23T16:26:40.747Z,102518.67
2023-01-23T16:29:26.606Z,102516.45
2023-01-23T16:31:59.399Z,102514.55
2023-01-23T16:34:30.522Z,102511.92
2023-01-23T16:37:02.864Z,102513.06
2023-01-23T16:39:36.657Z,102514.48
2023-01-23T16:42:07.580Z,102513.67
2023-01-23T16:44:38.375Z,102516.90
2023-01-23T16:47:09.401Z,102517.30
2023-01-23T16:49:51.336Z,102521.05
2023-01-23T16:52:26.450Z,102525.84
2023-01-23T16:54:57.249Z,102524.64
2023-01-23T16:57:28.193Z,102526.52
2023-01-23T16:59:59.503Z,102529.06
2023-01-23T17:02:32.899Z,102532.34
2023-01-23T17:05:12.280Z,102537.22
2023-01-23T17:07:43.001Z,102535.30
2023-01-23T17:10:21.039Z,102537.54
2023-01-23T17:12:53.626Z,102538.70
2023-01-23T17:15:29.204Z,102537.61
2023-01-23T17:18:02.203Z,102540.40
2023-01-23T17:20:34.471Z,102538.86
2023-01-23T17:23:05.198Z,102542.39
2023-01-23T17:25:42.714Z,102549.36
2023-01-23T17:28:22.290Z,102550.34
2023-01-23T17:30:55.481Z,102544.84
2023-01-23T17:33:31.326Z,102544.31
2023-01-23T17:36:04.698Z,102536.80
2023-01-23T17:38:44.751Z,102540.81
2023-01-23T17:41:19.432Z,102538.06
2023-01-23T17:43:51.434Z,102538.84
2023-01-23T17:46:27.251Z,102538.52
2023-01-23T17:48:58.933Z,102540.98
2023-01-23T17:51:30.059Z,102541.33
2023-01-23T17:54:00.864Z,102542.36
2023-01-23T17:56:31.834Z,102543.01
2023-01-23T17:59:02.870Z,102546.02
2023-01-23T18:01:33.666Z,102546.11
2023-01-23T18:04:04.999Z,102546.17
2023-01-23T18:06:35.986Z,102543.83
2023-01-23T18:09:07.141Z,102545.15
2023-01-23T18:11:41.407Z,102542.80
2023-01-23T18:14:47.587Z,102542.07
2023-01-23T18:17:30.378Z,102543.02
2023-01-23T18:20:03.948Z,102542.81
2023-01-23T18:22:35.799Z,102542.73
2023-01-23T18:25:14.246Z,102542.16
2023-01-23T18:27:50.307Z,102542.38
2023-01-23T18:30:39.543Z,102541.81
2023-01-23T18:33:29.382Z,102543.25
2023-01-23T18:36:31.791Z,102544.28
2023-01-23T18:39:32.906Z,102544.58
2023-01-23T18:42:18.770Z,102546.05
2023-01-23T18:44:57.599Z,102543.48
2023-01-23T18:47:28.933Z,102543.14
2023-01-23T18:50:00.640Z,102545.92
2023-01-23T18:52:44.725Z,102546.30
2023-01-23T18:55:24.554Z,102543.55
2023-01-23T18:58:05.240Z,102541.58
2023-01-23T19:00:43.331Z,102543.54
2023-01-23T19:03:16.991Z,102543.94
2023-01-23T19:05:48.394Z,102542.27
2023-01-23T19:08:28.673Z,102539.95
2023-01-23T19:11:06.711Z,102541.05
2023-01-23T19:13:45.425Z,102543.96
2023-01-23T19:16:23.717Z,102547.15
2023-01-23T19:19:10.733Z,102552.27
2023-01-23T19:21:47.279Z,102555.52
2023-01-23T19:24:21.442Z,102557.48
2023-01-23T19:26:54.279Z,102556.20
2023-01-23T19:29:25.943Z,102554.90
2023-01-23T19:32:06.034Z,102555.89
2023-01-23T19:34:37.277Z,102556.36
2023-01-23T19:37:08.516Z,102557.63
2023-01-23T19:39:39.860Z,102556.58
2023-01-23T19:42:16.586Z,102560.02
2023-01-23T19:44:47.991Z,102559.33
2023-01-23T19:47:18.808Z,102561.94
2023-01-23T19:49:49.525Z,102560.05
2023-01-23T19:52:21.148Z,102560.22
2023-01-23T19:54:52.518Z,102558.80
2023-01-23T19:57:23.445Z,102563.00
2023-01-23T19:59:54.630Z,102561.81
2023-01-23T20:02:33.640Z,102567.89
2023-01-23T20:05:05.911Z,102568.59
2023-01-23T20:07:36.950Z,102570.60
2023-01-23T20:10:11.447Z,102574.38
2023-01-23T20:12:47.702Z,102574.82
2023-01-23T20:15:19.708Z,102578.47
2023-01-23T20:17:53.053Z,102577.23
2023-01-23T20:20:28.750Z,102575.51
2023-01-23T20:22:59.958Z,102570.57
2023-01-23T20:25:31.104Z,102566.88
2023-01-23T20:28:02.204Z,102560.64
2023-01-23T20:30:34.314Z,102566.63
2023-01-23T20:33:10.604Z,102567.79
2023-01-23T20:35:42.122Z,102568.98
2023-01-23T20:38:15.444Z,102570.80
2023-01-23T20:40:46.574Z,102567.68
2023-01-23T20:43:18.229Z,102566.94
2023-01-23T20:45:50.897Z,102566.05
2023-01-23T20:48:22.028Z,102567.59
2023-01-23T20:50:59.999Z,102569.10
2023-01-23T20:53:31.748Z,102568.09
2023-01-23T20:56:06.294Z,102573.64
2023-01-23T20:58:59.409Z,102573.41
2023-01-23T21:01:53.599Z,102575.23
2023-01-23T21:04:26.692Z,102577.55
2023-01-23T21:06:57.654Z,102576.74
2023-01-23T21:09:29.311Z,102575.83
2023-01-23T21:12:02.760Z,102577.16
2023-01-23T21:14:34.712Z,102575.85
2023-01-23T21:17:08.787Z,102573.77
2023-01-23T21:19:51.699Z,102577.88
2023-01-23T21:22:22.904Z,102576.19
2023-01-23T21:24:54.259Z,102575.85
2023-01-23T21:27:25.959Z,102572.89
2023-01-23T21:29:59.962Z,102578.38
2023-01-23T21:32:31.219Z,102581.33
2023-01-23T21:35:03.241Z,102581.73
2023-01-23T21:37:37.451Z,102583.17
2023-01-23T21:40:11.353Z,102582.31
2023-01-23T21:42:42.385Z,102586.48
2023-01-23T21:45:14.454Z,102582.85
2023-01-23T21:47:45.185Z,102583.70
2023-01-23T21:50:17.791Z,102583.41
2023-01-23T21:52:48.810Z,102583.95
2023-01-23T21:55:20.200Z,102582.86
2023-01-23T21:57:52.150Z,102580.84
2023-01-23T22:00:41.100Z,102579.95
2023-01-23T22:03:11.862Z,102578.66
2023-01-23T22:05:42.641Z,102578.71
2023-01-23T22:08:13.597Z,102577.95
2023-01-23T22:10:44.308Z,102578.38
2023-01-23T22:13:15.074Z,102574.34
2023-01-23T22:15:45.789Z,102577.55
2023-01-23T22:18:16.534Z,102584.12
2023-01-23T22:20:47.232Z,102583.44
2023-01-23T22:23:18.056Z,102588.02
2023-01-23T22:25:49.247Z,102589.67
2023-01-23T22:28:20.368Z,102586.46
2023-01-23T22:30:51.071Z,102584.23
2023-01-23T22:33:24.019Z,102590.35
2023-01-23T22:35:56.534Z,102588.27
2023-01-23T22:38:27.318Z,102583.11
2023-01-23T22:41:02.731Z,102584.84
2023-01-23T22:43:33.755Z,102587.02
2023-01-23T22:46:10.154Z,102587.93
2023-01-23T22:48:41.082Z,102589.04
2023-01-23T22:51:19.836Z,102592.69
2023-01-23T22:53:50.917Z,102589.33
2023-01-23T22:56:22.093Z,102598.68
2023-01-23T22:58:54.537Z,102598.20
2023-01-23T23:01:27.296Z,102599.99
2023-01-23T23:03:59.233Z,102603.07
2023-01-23T23:06:30.447Z,102602.13
2023-01-23T23:09:01.144Z,102598.52
2023-01-23T23:11:31.942Z,102601.11
2023-01-23T23:14:02.728Z,102599.79
2023-01-23T23:16:34.043Z,102604.31
2023-01-23T23:19:05.601Z,102603.33
2023-01-23T23:21:38.331Z,102605.06
2023-01-23T23:24:14.125Z,102606.60
2023-01-23T23:26:44.925Z,102610.64
2023-01-23T23:29:16.889Z,102605.38
2023-01-23T23:31:51.597Z,102603.70
2023-01-23T23:34:22.733Z,102599.64
2023-01-23T23:36:53.483Z,102595.75
2023-01-23T23:39:24.382Z,102593.86
2023-01-23T23:41:55.262Z,102597.38
2023-01-23T23:44:26.177Z,102598.27
2023-01-23T23:46:56.872Z,102597.74
2023-01-23T23:49:27.581Z,102595.60
2023-01-23T23:51:58.299Z,102595.41
2023-01-23T23:54:29.228Z,102596.69
2023-01-23T23:57:00.025Z,102592.67
2023-01-23T23:59:30.850Z,102591.98
